Time;durP1;ratioP1;P1;durP2;ratioP2;P2;SDS_P1;SDS_P2;PMS_P1;PMS_P2;Temp;Humidity;BMP_temperature;BMP_pressure;BME280_temperature;BME280_humidity;BME280_pressure;Samples;Min_cycle;Max_cycle;Signal;HPM_P1;HPM_P2
2021/07/27 00:00:52;;;;;;;24.45;12.75;;;614.90;2432.00;;;;;;5096558;28;20058;-82
2021/07/27 00:03:18;;;;;;;22.75;13.27;;;614.90;2432.00;;;;;;5095577;28;20052;-83
2021/07/27 00:05:44;;;;;;;23.10;15.02;;;614.90;2432.00;;;;;;5096039;28;20063;-82
2021/07/27 00:08:10;;;;;;;23.55;13.75;;;589.70;2432.00;;;;;;5096148;28;20031;-81
2021/07/27 00:10:37;;;;;;;20.67;12.70;;;614.80;2432.00;;;;;;5095716;28;20067;-82
2021/07/27 00:13:06;;;;;;;18.13;11.82;;;614.50;2432.00;;;;;;5095994;28;20465;-81
2021/07/27 00:15:33;;;;;;;25.13;11.73;;;614.80;2432.00;;;;;;5095919;28;20032;-82
2021/07/27 00:17:59;;;;;;;22.60;12.65;;;615.10;2432.00;;;;;;5095560;28;20020;-81
2021/07/27 00:20:25;;;;;;;23.40;12.45;;;614.80;2432.00;;;;;;5095761;28;20522;-82
2021/07/27 00:22:51;;;;;;;22.38;11.57;;;614.70;2432.00;;;;;;5094323;28;20447;-83
2021/07/27 00:25:17;;;;;;;17.63;11.23;;;614.80;2432.00;;;;;;5095945;28;20066;-81
2021/07/27 00:27:44;;;;;;;22.60;12.65;;;614.80;2432.00;;;;;;5094527;28;20035;-82
2021/07/27 00:30:11;;;;;;;23.75;13.00;;;614.70;2432.00;;;;;;5094336;28;20020;-81
2021/07/27 00:32:42;;;;;;;23.55;12.55;;;614.80;2432.00;;;;;;5094425;28;20028;-80
2021/07/27 00:35:10;;;;;;;23.75;13.35;;;614.70;2432.00;;;;;;5094662;28;20442;-80
2021/07/27 00:37:38;;;;;;;16.42;11.30;;;614.60;2432.00;;;;;;5094108;28;20039;-80
2021/07/27 00:40:05;;;;;;;17.45;11.15;;;614.50;2432.00;;;;;;5094610;28;20024;-80
2021/07/27 00:42:31;;;;;;;16.85;11.88;;;614.50;2432.00;;;;;;5094526;28;20027;-81
2021/07/27 00:44:57;;;;;;;19.00;11.10;;;589.70;2432.00;;;;;;5094176;28;20540;-81
2021/07/27 00:47:23;;;;;;;20.85;12.48;;;589.70;2432.00;;;;;;5094210;28;20115;-82
2021/07/27 00:49:53;;;;;;;19.38;12.38;;;589.70;2432.00;;;;;;5094363;28;20062;-81
2021/07/27 00:52:18;;;;;;;18.05;12.50;;;589.60;2432.00;;;;;;5093984;28;20031;-81
2021/07/27 00:54:45;;;;;;;22.15;12.98;;;589.60;2432.00;;;;;;5094286;28;20036;-83
2021/07/27 00:57:11;;;;;;;33.55;13.23;;;589.50;2432.00;;;;;;5094171;28;20052;-82
2021/07/27 00:59:38;;;;;;;26.38;12.15;;;589.20;2432.00;;;;;;5094063;28;20063;-83
2021/07/27 01:02:03;;;;;;;19.65;12.88;;;589.30;2432.00;;;;;;5094140;28;20028;-83
2021/07/27 01:04:29;;;;;;;20.92;13.38;;;589.20;2432.00;;;;;;5094093;28;20098;-82
2021/07/27 01:06:55;;;;;;;15.73;13.02;;;589.20;2432.00;;;;;;5094671;28;20101;-81
2021/07/27 01:09:21;;;;;;;20.85;12.55;;;589.30;2432.00;;;;;;5094159;28;20024;-82
2021/07/27 01:11:47;;;;;;;18.23;11.82;;;589.20;2432.00;;;;;;5094124;28;20024;-80
2021/07/27 01:14:13;;;;;;;18.17;12.25;;;589.20;2432.00;;;;;;5093613;28;20044;-82
2021/07/27 01:16:38;;;;;;;18.85;13.02;;;589.20;2432.00;;;;;;5093539;28;20028;-80
2021/07/27 01:19:21;;;;;;;16.33;12.13;;;589.00;2432.00;;;;;;5093522;28;20093;-81
2021/07/27 01:41:01;;;;;;;19.58;11.57;;;588.80;2432.00;;;;;;5094470;28;20061;-80
2021/07/27 01:43:30;;;;;;;19.80;13.48;;;588.90;2432.00;;;;;;5094325;28;20524;-80
2021/07/27 01:45:57;;;;;;;23.73;12.25;;;588.90;2432.00;;;;;;5093312;28;20031;-82
2021/07/27 01:48:30;;;;;;;17.67;11.77;;;588.80;2432.00;;;;;;5093295;28;20051;-83
2021/07/27 01:50:58;;;;;;;17.27;12.55;;;588.90;2432.00;;;;;;5094655;28;20023;-81
2021/07/27 01:53:34;;;;;;;18.33;11.75;;;588.80;2432.00;;;;;;5093065;28;20024;-83
2021/07/27 01:56:00;;;;;;;18.33;12.10;;;588.90;2432.00;;;;;;5093636;28;20039;-83
2021/07/27 01:58:25;;;;;;;21.05;12.30;;;589.00;2432.00;;;;;;5094356;28;20032;-81
2021/07/27 02:00:52;;;;;;;22.17;12.18;;;564.10;2432.00;;;;;;5093253;28;20024;-82
2021/07/27 02:03:18;;;;;;;18.50;11.60;;;588.80;2432.00;;;;;;5092689;28;20028;-81
2021/07/27 02:05:46;;;;;;;17.65;11.85;;;588.80;2432.00;;;;;;5093007;28;20412;-81
2021/07/27 02:08:13;;;;;;;17.90;12.60;;;588.80;2432.00;;;;;;5095933;28;20382;-81
2021/07/27 02:10:42;;;;;;;19.70;12.30;;;564.10;2432.00;;;;;;5093318;28;20035;-80
2021/07/27 02:13:15;;;;;;;19.48;12.10;;;563.90;2432.00;;;;;;5092746;28;20524;-82
2021/07/27 02:15:44;;;;;;;16.63;11.82;;;564.00;2432.00;;;;;;5093219;28;20024;-79
2021/07/27 02:18:11;;;;;;;16.20;11.85;;;564.00;2432.00;;;;;;5093261;28;20028;-81
2021/07/27 02:20:37;;;;;;;18.92;11.68;;;564.10;2432.00;;;;;;5092766;28;20453;-81
2021/07/27 02:23:05;;;;;;;16.15;11.57;;;564.10;2432.00;;;;;;5093354;28;20030;-80
2021/07/27 02:25:32;;;;;;;22.75;12.10;;;564.00;2432.00;;;;;;5092566;28;20119;-81
2021/07/27 02:27:58;;;;;;;23.08;12.60;;;563.90;2432.00;;;;;;5093056;28;20461;-82
2021/07/27 02:30:35;;;;;;;21.58;12.02;;;564.00;2432.00;;;;;;5092818;28;20059;-80
2021/07/27 02:33:00;;;;;;;19.85;12.23;;;564.00;2432.00;;;;;;5092597;28;20444;-80
2021/07/27 02:35:28;;;;;;;20.35;12.50;;;563.90;2432.00;;;;;;5093027;28;20123;-81
2021/07/27 02:37:54;;;;;;;21.25;11.88;;;563.90;2432.00;;;;;;5092905;28;20032;-80
2021/07/27 02:40:20;;;;;;;18.67;12.30;;;564.00;2432.00;;;;;;5092372;28;20028;-79
2021/07/27 02:42:48;;;;;;;22.25;14.38;;;564.00;2432.00;;;;;;5092949;28;20024;-82
2021/07/27 02:45:14;;;;;;;15.90;11.50;;;563.70;2432.00;;;;;;5092902;28;20155;-80
2021/07/27 02:47:41;;;;;;;25.88;13.68;;;563.80;2432.00;;;;;;5092611;28;20404;-82
2021/07/27 02:50:08;;;;;;;19.10;12.18;;;563.80;2432.00;;;;;;5096805;28;20031;-81
2021/07/27 02:52:34;;;;;;;20.10;12.32;;;563.90;2432.00;;;;;;5096741;28;20043;-81
2021/07/27 02:55:00;;;;;;;23.27;12.20;;;563.90;2432.00;;;;;;5097636;28;20358;-80
2021/07/27 02:57:26;;;;;;;18.20;12.27;;;563.60;2432.00;;;;;;5096378;28;20035;-81
2021/07/27 02:59:58;;;;;;;19.98;12.27;;;563.70;2432.00;;;;;;5096244;28;20028;-81
2021/07/27 03:02:35;;;;;;;17.92;11.75;;;563.70;2432.00;;;;;;5096116;28;20077;-80
2021/07/27 03:05:01;;;;;;;25.85;13.10;;;563.70;2432.00;;;;;;5097265;28;20123;-80
2021/07/27 03:07:49;;;;;;;20.50;13.18;;;563.60;2432.00;;;;;;5096091;28;20139;-82
2021/07/27 03:10:17;;;;;;;16.52;12.13;;;563.60;2432.00;;;;;;5096613;28;20051;-82
2021/07/27 03:12:47;;;;;;;19.80;11.50;;;563.60;2432.00;;;;;;5096596;28;20024;-82
2021/07/27 03:15:14;;;;;;;15.65;11.68;;;563.60;2432.00;;;;;;5095659;28;20024;-80
2021/07/27 03:17:40;;;;;;;21.17;13.10;;;563.50;2432.00;;;;;;5096135;28;20067;-83
2021/07/27 03:20:08;;;;;;;18.33;12.80;;;563.60;2432.00;;;;;;5095870;28;20081;-82
2021/07/27 03:22:34;;;;;;;21.80;14.85;;;563.50;2432.00;;;;;;5095769;28;20458;-83
2021/07/27 03:25:00;;;;;;;17.77;12.48;;;563.60;2432.00;;;;;;5095963;28;20074;-82
2021/07/27 03:27:26;;;;;;;25.38;12.50;;;563.50;2432.00;;;;;;5095918;28;20541;-81
2021/07/27 03:29:51;;;;;;;22.75;13.27;;;563.40;2432.00;;;;;;5095659;28;20461;-80
2021/07/27 03:32:17;;;;;;;24.08;14.40;;;563.30;2432.00;;;;;;5097001;28;20024;-81
2021/07/27 03:34:44;;;;;;;22.48;12.88;;;563.20;2432.00;;;;;;5095710;28;20119;-82
2021/07/27 03:37:13;;;;;;;23.70;12.25;;;563.40;2432.00;;;;;;5095558;28;20526;-82
2021/07/27 03:39:39;;;;;;;20.48;12.30;;;563.40;2432.00;;;;;;5096105;28;20458;-82
2021/07/27 03:42:05;;;;;;;26.92;12.07;;;563.40;2432.00;;;;;;5095764;28;20035;-81
2021/07/27 03:44:31;;;;;;;19.45;13.00;;;563.50;2432.00;;;;;;5095834;28;20035;-82
2021/07/27 03:47:00;;;;;;;17.45;12.82;;;563.40;2432.00;;;;;;5095787;28;20032;-82
2021/07/27 03:49:29;;;;;;;21.20;12.40;;;563.50;2432.00;;;;;;5095029;28;20035;-80
2021/07/27 03:51:55;;;;;;;19.98;12.70;;;563.50;2432.00;;;;;;5095574;28;20020;-80
2021/07/27 03:54:22;;;;;;;21.38;13.10;;;563.30;2432.00;;;;;;5096710;28;20415;-82
2021/07/27 03:56:48;;;;;;;21.02;13.23;;;538.50;2406.40;;;;;;5096400;28;20077;-82
2021/07/27 03:59:14;;;;;;;25.05;13.98;;;538.50;2406.40;;;;;;5096447;28;20024;-80
2021/07/27 04:01:41;;;;;;;21.45;12.85;;;538.50;2406.40;;;;;;5096077;28;20039;-80
2021/07/27 04:04:07;;;;;;;22.05;12.18;;;563.20;2432.00;;;;;;5094803;28;20417;-81
2021/07/27 04:06:34;;;;;;;20.20;12.57;;;563.20;2432.00;;;;;;5095135;28;20124;-83
2021/07/27 04:08:59;;;;;;;21.35;12.48;;;563.30;2432.00;;;;;;5095107;28;20055;-82
2021/07/27 04:11:25;;;;;;;19.42;12.20;;;563.30;2432.00;;;;;;5095049;28;20032;-82
2021/07/27 04:13:51;;;;;;;19.27;12.05;;;563.20;2432.00;;;;;;5095099;28;20020;-83
2021/07/27 04:16:17;;;;;;;17.58;11.93;;;563.30;2432.00;;;;;;5095364;28;20024;-82
2021/07/27 04:18:42;;;;;;;20.35;13.80;;;563.20;2432.00;;;;;;5094864;28;20032;-81
2021/07/27 04:21:08;;;;;;;18.98;12.68;;;563.20;2432.00;;;;;;5095024;28;20027;-80
2021/07/27 04:23:34;;;;;;;25.45;13.38;;;538.50;2406.40;;;;;;5094966;28;20024;-80
2021/07/27 04:26:00;;;;;;;27.63;15.38;;;538.40;2406.40;;;;;;5094616;28;20028;-84
2021/07/27 04:28:26;;;;;;;23.83;12.48;;;538.30;2406.40;;;;;;5095060;28;20114;-81
2021/07/27 04:30:51;;;;;;;27.85;13.60;;;538.40;2406.40;;;;;;5094787;28;20566;-83
2021/07/27 04:33:17;;;;;;;16.52;12.55;;;538.20;2406.40;;;;;;5094599;28;20032;-83
2021/07/27 04:35:43;;;;;;;25.00;14.20;;;538.20;2406.40;;;;;;5096140;28;20032;-82
2021/07/27 04:38:09;;;;;;;18.70;12.07;;;538.30;2406.40;;;;;;5095638;28;20024;-82
2021/07/27 04:40:35;;;;;;;22.83;13.45;;;538.30;2406.40;;;;;;5095709;28;20506;-83
2021/07/27 04:43:00;;;;;;;20.58;12.30;;;538.30;2406.40;;;;;;5095747;28;20078;-82
2021/07/27 04:45:26;;;;;;;23.70;13.68;;;538.40;2406.40;;;;;;5094924;28;20028;-82
2021/07/27 04:47:55;;;;;;;23.95;12.85;;;538.50;2406.40;;;;;;5094707;28;20048;-83
2021/07/27 04:50:21;;;;;;;19.95;12.27;;;563.20;2432.00;;;;;;5094300;28;20081;-82
2021/07/27 04:52:57;;;;;;;25.92;13.07;;;563.40;2432.00;;;;;;5093873;28;20020;-80
2021/07/27 04:55:24;;;;;;;21.17;11.75;;;563.40;2432.00;;;;;;5094191;28;20076;-83
2021/07/27 04:57:51;;;;;;;28.50;13.70;;;563.40;2432.00;;;;;;5094542;28;20036;-82
2021/07/27 05:00:26;;;;;;;18.80;13.77;;;563.50;2432.00;;;;;;5093993;28;20020;-82
2021/07/27 05:02:52;;;;;;;21.98;13.32;;;563.60;2432.00;;;;;;5094505;28;20024;-82
2021/07/27 05:05:18;;;;;;;27.90;14.23;;;563.50;2432.00;;;;;;5094294;28;20051;-83
2021/07/27 05:07:47;;;;;;;26.50;13.35;;;563.50;2432.00;;;;;;5094142;28;20038;-81
2021/07/27 05:10:13;;;;;;;20.50;14.02;;;563.60;2432.00;;;;;;5094170;28;20469;-81
2021/07/27 05:12:40;;;;;;;23.23;13.57;;;563.60;2432.00;;;;;;5093361;28;20028;-81
2021/07/27 05:15:06;;;;;;;24.23;13.95;;;563.50;2432.00;;;;;;5093669;28;20036;-80
2021/07/27 05:17:32;;;;;;;26.30;14.02;;;563.50;2432.00;;;;;;5094223;28;20528;-83
2021/07/27 05:19:58;;;;;;;26.60;13.40;;;563.40;2432.00;;;;;;5093905;28;20043;-81
2021/07/27 05:22:24;;;;;;;29.08;14.38;;;563.40;2432.00;;;;;;5093611;28;20082;-83
2021/07/27 05:24:53;;;;;;;28.10;15.15;;;563.50;2432.00;;;;;;5094070;28;20024;-80
2021/07/27 05:27:21;;;;;;;25.75;15.23;;;563.50;2432.00;;;;;;5094105;28;20023;-81
2021/07/27 05:29:52;;;;;;;25.58;13.25;;;563.50;2432.00;;;;;;5093935;28;20024;-81
2021/07/27 05:32:18;;;;;;;28.05;13.23;;;563.60;2432.00;;;;;;5093777;28;20469;-82
2021/07/27 05:34:43;;;;;;;25.15;14.50;;;563.70;2432.00;;;;;;5093428;28;20162;-82
2021/07/27 05:37:09;;;;;;;27.30;13.85;;;563.70;2432.00;;;;;;5094028;28;20058;-82
2021/07/27 05:39:35;;;;;;;26.85;13.35;;;564.00;2432.00;;;;;;5094148;28;20031;-80
2021/07/27 05:42:02;;;;;;;27.42;13.82;;;563.80;2432.00;;;;;;5093723;28;20020;-83
2021/07/27 05:44:28;;;;;;;21.35;13.23;;;589.00;2432.00;;;;;;5093686;28;20024;-81
2021/07/27 05:46:54;;;;;;;23.50;12.70;;;564.00;2432.00;;;;;;5094027;28;20028;-81
2021/07/27 05:49:21;;;;;;;20.80;13.27;;;589.10;2432.00;;;;;;5094528;28;20028;-81
2021/07/27 05:51:49;;;;;;;19.88;13.20;;;564.10;2432.00;;;;;;5093473;28;20047;-80
2021/07/27 05:54:18;;;;;;;23.40;14.07;;;588.80;2432.00;;;;;;5095040;28;20034;-81
2021/07/27 05:56:44;;;;;;;26.65;13.70;;;588.90;2432.00;;;;;;5093188;28;20085;-80
2021/07/27 05:59:10;;;;;;;22.92;12.57;;;589.10;2432.00;;;;;;5093721;28;20059;-82
2021/07/27 06:01:36;;;;;;;23.15;13.05;;;589.00;2432.00;;;;;;5093828;28;20051;-84
2021/07/27 06:04:02;;;;;;;21.65;13.45;;;589.20;2432.00;;;;;;5093224;28;20048;-83
2021/07/27 06:06:33;;;;;;;27.05;14.45;;;589.30;2432.00;;;;;;5093644;28;20484;-85
2021/07/27 06:09:01;;;;;;;23.75;13.77;;;589.40;2432.00;;;;;;5093680;28;20020;-84
2021/07/27 06:11:27;;;;;;;24.02;12.48;;;589.40;2432.00;;;;;;5093243;28;20036;-80
2021/07/27 06:13:52;;;;;;;21.23;11.55;;;589.40;2432.00;;;;;;5093489;28;20020;-82
2021/07/27 06:16:18;;;;;;;21.77;13.68;;;589.60;2432.00;;;;;;5093396;28;20035;-82
2021/07/27 06:18:44;;;;;;;22.15;11.98;;;589.70;2432.00;;;;;;5093150;28;20028;-83
2021/07/27 06:21:11;;;;;;;24.40;12.13;;;614.40;2432.00;;;;;;5093833;28;20024;-82
2021/07/27 06:23:37;;;;;;;21.10;12.65;;;614.50;2432.00;;;;;;5096658;28;20028;-82
2021/07/27 06:26:06;;;;;;;21.45;13.23;;;589.50;2432.00;;;;;;5097672;28;20038;-81
2021/07/27 06:28:33;;;;;;;25.83;11.93;;;614.70;2432.00;;;;;;5097466;28;20028;-80
2021/07/27 06:31:02;;;;;;;21.00;11.85;;;614.80;2432.00;;;;;;5097176;28;20383;-82
2021/07/27 06:33:28;;;;;;;19.63;11.60;;;614.90;2432.00;;;;;;5097563;28;20028;-82
2021/07/27 06:35:57;;;;;;;24.88;11.60;;;615.00;2432.00;;;;;;5096841;28;20549;-82
2021/07/27 06:38:24;;;;;;;24.90;11.82;;;615.10;2432.00;;;;;;5097281;28;20459;-83
2021/07/27 06:40:50;;;;;;;17.42;12.43;;;615.30;2432.00;;;;;;5097248;28;20024;-83
2021/07/27 06:43:16;;;;;;;19.83;12.30;;;640.00;2432.00;;;;;;5097394;28;20081;-81
2021/07/27 06:45:42;;;;;;;24.98;11.93;;;640.20;2432.00;;;;;;5097425;28;20024;-81
2021/07/27 06:48:10;;;;;;;20.33;10.77;;;640.20;2432.00;;;;;;5097312;28;20480;-81
2021/07/27 06:50:36;;;;;;;19.73;11.70;;;640.20;2432.00;;;;;;5096908;28;20081;-81
2021/07/27 06:53:02;;;;;;;24.42;10.98;;;640.30;2432.00;;;;;;5096764;28;20024;-79
2021/07/27 06:55:28;;;;;;;17.92;10.68;;;640.40;2432.00;;;;;;5096710;28;20031;-83
2021/07/27 06:57:54;;;;;;;24.35;11.75;;;640.50;2432.00;;;;;;5096595;28;20575;-81
2021/07/27 07:00:20;;;;;;;22.67;12.60;;;640.70;2432.00;;;;;;5096399;28;20020;-83
2021/07/27 07:02:46;;;;;;;20.50;11.00;;;640.90;2432.00;;;;;;5096577;28;20123;-83
2021/07/27 07:05:12;;;;;;;21.17;11.50;;;665.60;2432.00;;;;;;5096355;28;20489;-81
2021/07/27 07:07:39;;;;;;;24.05;12.70;;;665.70;2432.00;;;;;;5096498;28;20028;-83
2021/07/27 07:10:05;;;;;;;23.35;11.23;;;665.80;2432.00;;;;;;5096481;28;20024;-82
2021/07/27 07:12:31;;;;;;;20.52;11.60;;;666.00;2432.00;;;;;;5095885;28;20065;-82
2021/07/27 07:14:57;;;;;;;25.55;13.68;;;666.20;2432.00;;;;;;5097189;28;20032;-83
2021/07/27 07:17:26;;;;;;;22.00;12.15;;;666.50;2432.00;;;;;;5096399;28;20034;-80
2021/07/27 07:19:52;;;;;;;19.95;11.73;;;666.50;2432.00;;;;;;5095599;28;20059;-81
2021/07/27 07:22:19;;;;;;;24.33;12.02;;;666.50;2432.00;;;;;;5096109;28;20534;-82
2021/07/27 07:24:48;;;;;;;23.92;11.18;;;691.20;2432.00;;;;;;5097469;28;20074;-82
2021/07/27 07:27:14;;;;;;;21.60;12.65;;;691.40;2432.00;;;;;;5095725;28;20024;-82
2021/07/27 07:29:40;;;;;;;22.80;12.75;;;691.50;2432.00;;;;;;5095827;28;20373;-83
2021/07/27 07:32:07;;;;;;;24.73;11.75;;;691.80;2432.00;;;;;;5095860;28;20035;-81
2021/07/27 07:34:33;;;;;;;19.58;11.43;;;691.90;2432.00;;;;;;5095557;28;20044;-81
2021/07/27 07:36:59;;;;;;;15.68;11.02;;;691.90;2432.00;;;;;;5095454;28;20032;-81
2021/07/27 07:39:25;;;;;;;19.30;10.85;;;692.10;2432.00;;;;;;5095386;28;20035;-82
2021/07/27 07:41:50;;;;;;;20.42;11.45;;;716.80;2432.00;;;;;;5095304;28;20024;-82
2021/07/27 07:44:16;;;;;;;20.27;11.82;;;716.80;2432.00;;;;;;5095220;28;20089;-81
2021/07/27 07:46:42;;;;;;;18.90;10.73;;;692.10;2432.00;;;;;;5096840;28;20024;-82
2021/07/27 07:49:08;;;;;;;17.95;10.93;;;717.00;2432.00;;;;;;5095062;28;20024;-81
2021/07/27 07:51:35;;;;;;;17.48;11.80;;;717.00;2432.00;;;;;;5095521;28;20027;-83
2021/07/27 07:54:01;;;;;;;17.67;11.35;;;717.10;2432.00;;;;;;5095244;28;20114;-81
2021/07/27 07:56:27;;;;;;;20.15;11.30;;;717.40;2432.00;;;;;;5094999;28;20031;-82
2021/07/27 07:58:53;;;;;;;17.50;10.57;;;717.50;2432.00;;;;;;5095324;28;20032;-83
2021/07/27 08:01:19;;;;;;;15.73;10.65;;;717.60;2432.00;;;;;;5095396;28;20024;-82
2021/07/27 08:03:44;;;;;;;20.65;11.15;;;717.50;2432.00;;;;;;5094623;28;20495;-81
2021/07/27 08:06:10;;;;;;;17.55;10.57;;;742.40;2432.00;;;;;;5095132;28;20081;-80
2021/07/27 08:08:38;;;;;;;25.85;13.40;;;742.40;2432.00;;;;;;5094666;28;20031;-82
2021/07/27 08:11:06;;;;;;;18.58;10.90;;;742.60;2432.00;;;;;;5095139;28;20035;-82
2021/07/27 08:13:32;;;;;;;20.23;11.65;;;742.60;2432.00;;;;;;5095154;28;20032;-81
2021/07/27 08:15:57;;;;;;;21.92;11.13;;;742.70;2432.00;;;;;;5094711;28;20043;-81
2021/07/27 08:18:23;;;;;;;20.05;11.10;;;742.90;2432.00;;;;;;5094775;28;20039;-81
2021/07/27 08:20:50;;;;;;;18.73;10.70;;;743.10;2432.00;;;;;;5094765;28;20030;-83
2021/07/27 08:23:16;;;;;;;22.98;11.55;;;743.10;2432.00;;;;;;5094444;28;20024;-84
2021/07/27 08:25:42;;;;;;;20.73;10.95;;;743.30;2432.00;;;;;;5094689;28;20077;-83
2021/07/27 08:28:08;;;;;;;15.35;10.20;;;768.00;2432.00;;;;;;5094635;28;20032;-81
2021/07/27 08:30:33;;;;;;;19.65;11.45;;;768.10;2432.00;;;;;;5094379;28;20028;-82
2021/07/27 08:32:59;;;;;;;22.88;14.30;;;768.20;2432.00;;;;;;5094910;28;20114;-81
2021/07/27 08:35:25;;;;;;;18.45;12.10;;;768.40;2432.00;;;;;;5096718;28;20035;-82
2021/07/27 08:37:51;;;;;;;17.50;11.48;;;768.60;2432.00;;;;;;5094200;28;20070;-82
2021/07/27 08:40:19;;;;;;;15.70;12.32;;;768.40;2432.00;;;;;;5094392;28;20461;-80
2021/07/27 08:42:46;;;;;;;21.58;13.25;;;768.50;2432.00;;;;;;5094353;28;20073;-80
2021/07/27 08:45:12;;;;;;;22.60;11.00;;;768.80;2432.00;;;;;;5094551;28;20055;-83
2021/07/27 08:47:49;;;;;;;21.10;11.68;;;768.70;2432.00;;;;;;5094304;28;20526;-80
2021/07/27 08:50:16;;;;;;;15.10;10.75;;;768.70;2432.00;;;;;;5094413;28;20020;-82
2021/07/27 08:52:42;;;;;;;23.02;13.90;;;768.60;2432.00;;;;;;5093994;28;20024;-83
2021/07/27 08:55:09;;;;;;;18.13;11.32;;;768.80;2432.00;;;;;;5094034;28;20035;-83
2021/07/27 08:57:41;;;;;;;21.23;13.40;;;793.80;2432.00;;;;;;5093641;28;20028;-81
2021/07/27 09:00:07;;;;;;;19.65;12.88;;;793.70;2432.00;;;;;;5094054;28;20031;-81
2021/07/27 09:02:33;;;;;;;24.42;11.13;;;794.20;2432.00;;;;;;5093749;28;20032;-81
2021/07/27 09:05:10;;;;;;;15.27;10.25;;;794.50;2432.00;;;;;;5093850;28;20048;-83
2021/07/27 09:07:36;;;;;;;21.25;11.38;;;819.20;2432.00;;;;;;5094423;28;20024;-84
2021/07/27 09:10:15;;;;;;;19.35;10.40;;;819.40;2432.00;;;;;;5094237;28;20092;-83
2021/07/27 09:12:54;;;;;;;20.80;12.20;;;819.70;2432.00;;;;;;5093718;28;20489;-84
2021/07/27 09:15:21;;;;;;;23.95;12.63;;;819.90;2432.00;;;;;;5094054;28;20406;-84
2021/07/27 09:17:57;;;;;;;19.45;12.20;;;820.00;2432.00;;;;;;5093948;28;20032;-86
2021/07/27 09:20:33;;;;;;;20.67;10.65;;;820.10;2432.00;;;;;;5094269;28;20020;-83
2021/07/27 09:22:59;;;;;;;20.13;10.23;;;819.90;2432.00;;;;;;5094097;28;20020;-84
2021/07/27 09:25:28;;;;;;;23.25;10.75;;;819.80;2432.00;;;;;;5093753;28;20024;-83
2021/07/27 09:28:08;;;;;;;17.85;10.25;;;820.10;2432.00;;;;;;5093817;28;20032;-85
2021/07/27 09:30:36;;;;;;;15.55;10.70;;;844.90;2432.00;;;;;;5095134;28;20020;-83
2021/07/27 09:33:07;;;;;;;15.95;10.45;;;845.20;2432.00;;;;;;5093622;28;20031;-82
2021/07/27 09:35:33;;;;;;;21.00;11.70;;;845.20;2432.00;;;;;;5093675;28;20564;-84
2021/07/27 09:38:23;;;;;;;19.38;10.43;;;845.50;2432.00;;;;;;5093993;28;20119;-84
2021/07/27 09:40:51;;;;;;;19.20;10.32;;;845.40;2432.00;;;;;;5092894;28;20038;-85
2021/07/27 09:43:18;;;;;;;17.52;9.75;;;845.20;2432.00;;;;;;5093592;28;20063;-84
2021/07/27 09:45:49;;;;;;;16.73;9.65;;;844.90;2432.00;;;;;;5093661;28;20056;-83
2021/07/27 09:48:16;;;;;;;20.10;10.00;;;844.90;2432.00;;;;;;5093470;28;20020;-84
2021/07/27 09:50:46;;;;;;;23.55;12.15;;;845.20;2432.00;;;;;;5093696;28;20024;-84
2021/07/27 09:53:12;;;;;;;18.17;11.13;;;845.40;2432.00;;;;;;5094285;28;20067;-82
2021/07/27 09:55:38;;;;;;;18.83;10.10;;;870.60;2380.80;;;;;;5093758;28;20495;-84
2021/07/27 09:58:04;;;;;;;21.00;10.82;;;870.50;2329.60;;;;;;5093229;28;20028;-82
2021/07/27 10:00:30;;;;;;;17.20;10.98;;;870.70;2355.20;;;;;;5094085;28;20082;-83
2021/07/27 10:02:57;;;;;;;16.63;9.95;;;870.80;2278.40;;;;;;5107072;28;20047;-83
2021/07/27 10:05:25;;;;;;;14.85;10.38;;;870.70;2304.00;;;;;;5117744;28;20055;-81
2021/07/27 10:07:54;;;;;;;18.55;9.90;;;870.70;2278.40;;;;;;5116811;28;20038;-81
2021/07/27 10:10:36;;;;;;;23.15;10.60;;;870.90;2227.20;;;;;;5110797;28;20017;-83
2021/07/27 10:13:09;;;;;;;;;;;871.20;2278.40;;;;;;5096784;28;20024;-82
2021/07/27 10:15:45;;;;;;;19.63;13.40;;;896.10;2278.40;;;;;;5092569;28;19908;-84
2021/07/27 10:18:13;;;;;;;18.58;10.30;;;896.00;2176.00;;;;;;5093045;28;20028;-82
2021/07/27 10:20:39;;;;;;;22.50;11.07;;;896.20;2124.80;;;;;;5093007;28;20024;-83
2021/07/27 10:23:19;;;;;;;17.67;10.68;;;896.40;2150.40;;;;;;5094014;28;20125;-81
2021/07/27 10:25:56;;;;;;;23.98;9.90;;;896.50;2099.20;;;;;;5093177;28;20032;-82
2021/07/27 10:28:23;;;;;;;19.45;9.43;;;896.30;2073.60;;;;;;5092714;28;20115;-82
2021/07/27 10:31:00;;;;;;;20.52;9.02;;;896.50;2099.20;;;;;;5092902;28;20031;-81
2021/07/27 10:33:30;;;;;;;20.02;9.40;;;896.90;2073.60;;;;;;5092703;28;20358;-82
2021/07/27 10:35:56;;;;;;;19.80;10.38;;;896.90;2048.00;;;;;;5092303;28;20032;-83
2021/07/27 10:38:22;;;;;;;18.58;9.38;;;896.60;2048.00;;;;;;5092796;28;20035;-84
2021/07/27 10:40:49;;;;;;;24.33;13.45;;;896.80;2048.00;;;;;;5092853;28;20121;-83
2021/07/27 10:43:25;;;;;;;15.55;9.15;;;896.70;2073.60;;;;;;5092512;28;20024;-83
2021/07/27 10:46:00;;;;;;;15.75;10.23;;;896.90;1996.80;;;;;;5092745;28;20118;-84
2021/07/27 10:48:36;;;;;;;22.08;9.95;;;921.60;2022.40;;;;;;5092813;28;20028;-84
2021/07/27 10:51:02;;;;;;;20.17;9.82;;;896.70;1996.80;;;;;;5092394;28;20060;-82
2021/07/27 10:53:32;;;;;;;19.15;9.88;;;922.00;2022.40;;;;;;5092361;28;20035;-83
2021/07/27 10:56:10;;;;;;;19.50;9.80;;;896.90;1945.60;;;;;;5092476;28;20158;-82
2021/07/27 10:58:36;;;;;;;21.42;10.20;;;896.90;1945.60;;;;;;5092107;28;20035;-84
2021/07/27 11:01:10;;;;;;;17.85;9.50;;;922.00;1971.20;;;;;;5092943;28;20039;-84
2021/07/27 11:03:36;;;;;;;21.08;9.27;;;922.00;1920.00;;;;;;5092201;28;20135;-85
2021/07/27 11:06:04;;;;;;;19.77;10.25;;;921.80;1894.40;;;;;;5092699;28;20031;-82
2021/07/27 11:08:30;;;;;;;22.52;9.48;;;922.00;1894.40;;;;;;5092439;28;20058;-82
2021/07/27 11:11:06;;;;;;;19.08;9.35;;;922.20;1894.40;;;;;;5095772;28;20537;-83
2021/07/27 11:13:33;;;;;;;21.10;10.20;;;922.30;1894.40;;;;;;5096223;28;20027;-81
2021/07/27 11:16:00;;;;;;;16.27;10.00;;;947.20;1894.40;;;;;;5096386;28;20553;-83
2021/07/27 11:18:30;;;;;;;25.48;9.27;;;947.30;1843.20;;;;;;5095840;28;20035;-84
2021/07/27 11:20:58;;;;;;;18.55;10.00;;;947.70;1817.60;;;;;;5096194;28;20052;-83
2021/07/27 11:23:25;;;;;;;26.67;13.55;;;947.90;1843.20;;;;;;5096050;28;20024;-84
2021/07/27 11:25:58;;;;;;;17.40;9.45;;;948.10;1817.60;;;;;;5096931;28;20077;-84
2021/07/27 11:28:36;;;;;;;21.90;9.88;;;947.50;1766.40;;;;;;5095830;28;20032;-82
2021/07/27 11:31:03;;;;;;;18.23;8.93;;;947.40;1792.00;;;;;;5096876;28;20150;-83
2021/07/27 11:33:29;;;;;;;17.13;9.48;;;947.80;1792.00;;;;;;5095813;28;20534;-84
2021/07/27 11:35:56;;;;;;;16.48;9.05;;;947.70;1792.00;;;;;;5095992;28;20024;-84
2021/07/27 11:38:27;;;;;;;20.50;9.55;;;947.90;1766.40;;;;;;5095808;28;20098;-83
2021/07/27 11:41:07;;;;;;;15.00;8.93;;;972.80;1766.40;;;;;;5096355;28;20031;-83
2021/07/27 11:43:35;;;;;;;16.47;9.33;;;973.10;1740.80;;;;;;5096636;28;20032;-83
2021/07/27 11:46:29;;;;;;;19.77;9.43;;;973.30;1766.40;;;;;;5095846;28;20461;-82
2021/07/27 11:48:55;;;;;;;18.25;9.52;;;973.30;1715.20;;;;;;5095754;28;20056;-81
2021/07/27 11:51:34;;;;;;;22.95;9.02;;;973.50;1689.60;;;;;;5096034;28;20049;-85
2021/07/27 11:54:00;;;;;;;16.63;8.48;;;973.50;1715.20;;;;;;5096696;28;20024;-83
2021/07/27 11:56:26;;;;;;;22.30;10.15;;;973.20;1715.20;;;;;;5096657;28;20036;-82
2021/07/27 11:59:06;;;;;;;17.23;10.60;;;973.20;1689.60;;;;;;5096261;28;20485;-84
2021/07/27 12:01:39;;;;;;;23.63;9.30;;;973.50;1715.20;;;;;;5099241;28;20028;-84
2021/07/27 12:04:05;;;;;;;21.73;9.98;;;973.70;1715.20;;;;;;5096721;28;20048;-85
2021/07/27 12:06:32;;;;;;;16.05;9.43;;;998.50;1689.60;;;;;;5094916;28;20028;-84
2021/07/27 12:09:01;;;;;;;19.20;7.88;;;998.80;1664.00;;;;;;5095185;28;20066;-85
2021/07/27 12:11:27;;;;;;;18.27;9.23;;;998.80;1612.80;;;;;;5095391;28;20034;-81
2021/07/27 12:13:53;;;;;;;19.85;9.32;;;999.00;1587.20;;;;;;5096019;28;20024;-85
2021/07/27 12:16:19;;;;;;;17.08;7.80;;;998.80;1561.60;;;;;;5095058;28;20035;-82
2021/07/27 12:18:45;;;;;;;19.70;9.43;;;998.80;1561.60;;;;;;5096488;28;20358;-83
2021/07/27 12:21:11;;;;;;;16.30;10.63;;;999.00;1561.60;;;;;;5094257;28;20119;-85
2021/07/27 12:23:36;;;;;;;16.35;8.55;;;999.00;1536.00;;;;;;5095317;28;20028;-85